createdAt,value
2022-12-15T00:01:42.399Z,-2.72
2022-12-15T00:04:03.068Z,-2.82
2022-12-15T00:06:24.211Z,-2.85
2022-12-15T00:08:45.198Z,-3.01
2022-12-15T00:11:06.065Z,-3.02
2022-12-15T00:13:29.812Z,-3.01
2022-12-15T00:15:51.211Z,-2.88
2022-12-15T00:18:13.579Z,-2.89
2022-12-15T00:20:35.111Z,-3.12
2022-12-15T00:22:56.091Z,-2.94
2022-12-15T00:25:17.097Z,-2.84
2022-12-15T00:27:38.842Z,-3.00
2022-12-15T00:29:59.942Z,-2.99
2022-12-15T00:32:20.673Z,-2.99
2022-12-15T00:34:42.983Z,-2.89
2022-12-15T00:37:03.858Z,-3.17
2022-12-15T00:39:07.266Z,-3.29
2022-12-15T00:41:10.679Z,-3.19
2022-12-15T00:43:14.071Z,-3.29
2022-12-15T00:45:17.618Z,-3.28
2022-12-15T00:47:20.437Z,-3.23
2022-12-15T00:49:43.595Z,-3.11
2022-12-15T00:52:04.697Z,-3.17
2022-12-15T00:54:25.899Z,-3.21
2022-12-15T00:56:47.392Z,-3.24
2022-12-15T00:59:08.495Z,-3.24
2022-12-15T01:01:29.809Z,-3.05
2022-12-15T01:03:50.962Z,-2.99
2022-12-15T01:06:13.327Z,-3.03
2022-12-15T01:08:34.445Z,-3.07
2022-12-15T01:10:55.671Z,-2.97
2022-12-15T01:13:16.690Z,-2.98
2022-12-15T01:15:37.675Z,-3.02
2022-12-15T01:17:58.751Z,-2.91
2022-12-15T01:20:14.436Z,-2.94
2022-12-15T01:22:19.112Z,-3.16
2022-12-15T01:24:22.372Z,-3.17
2022-12-15T01:26:25.661Z,-3.14
2022-12-15T01:28:29.644Z,-3.10
2022-12-15T01:30:32.948Z,-3.20
2022-12-15T01:32:36.254Z,-3.17
2022-12-15T01:34:39.543Z,-3.18
2022-12-15T01:36:42.847Z,-3.35
2022-12-15T01:38:53.730Z,-3.36
2022-12-15T01:41:00.818Z,-3.57
2022-12-15T01:43:04.369Z,-3.82
2022-12-15T01:45:50.100Z,-3.53
2022-12-15T01:47:54.665Z,-3.51
2022-12-15T01:49:57.998Z,-3.33
2022-12-15T01:52:06.714Z,-3.31
2022-12-15T01:54:15.970Z,-3.32
2022-12-15T01:56:20.797Z,-3.23
2022-12-15T01:58:24.533Z,-3.21
2022-12-15T02:00:28.525Z,-3.12
2022-12-15T02:02:38.357Z,-3.28
2022-12-15T02:04:43.786Z,-3.21
2022-12-15T02:06:47.193Z,-3.17
2022-12-15T02:08:54.108Z,-3.25
2022-12-15T02:11:24.605Z,-3.19
2022-12-15T02:13:36.397Z,-3.09
2022-12-15T02:15:48.159Z,-3.01
2022-12-15T02:18:05.004Z,-3.09
2022-12-15T02:20:49.857Z,-3.17
2022-12-15T02:23:13.912Z,-3.17
2022-12-15T02:25:42.455Z,-3.36
2022-12-15T02:27:56.162Z,-3.62
2022-12-15T02:31:09.391Z,-3.50
2022-12-15T02:33:22.269Z,-3.58
2022-12-15T02:35:31.885Z,-3.75
2022-12-15T02:37:37.849Z,-3.89
2022-12-15T02:39:41.212Z,-3.72
2022-12-15T02:41:46.043Z,-3.82
2022-12-15T02:43:49.918Z,-3.93
2022-12-15T02:46:05.418Z,-4.01
2022-12-15T02:48:20.983Z,-4.00
2022-12-15T02:50:35.542Z,-4.00
2022-12-15T02:52:51.221Z,-4.00
2022-12-15T02:55:10.060Z,-3.78
2022-12-15T02:57:21.085Z,-3.78
2022-12-15T02:59:34.983Z,-3.65
2022-12-15T03:01:44.478Z,-3.55
2022-12-15T03:03:49.566Z,-3.65
2022-12-15T03:05:54.738Z,-3.36
2022-12-15T03:07:58.115Z,-3.25
2022-12-15T03:10:04.099Z,-3.44
2022-12-15T03:12:08.170Z,-3.36
2022-12-15T03:14:11.616Z,-3.40
2022-12-15T03:16:15.348Z,-3.67
2022-12-15T03:18:20.163Z,-3.48
2022-12-15T03:20:26.682Z,-3.46
2022-12-15T03:22:29.965Z,-3.50
2022-12-15T03:24:33.328Z,-3.37
2022-12-15T03:26:36.667Z,-3.29
2022-12-15T03:28:39.996Z,-3.31
2022-12-15T03:30:43.268Z,-3.25
2022-12-15T03:32:48.393Z,-3.34
2022-12-15T03:34:53.077Z,-3.29
2022-12-15T03:36:56.435Z,-3.30
2022-12-15T03:38:59.726Z,-3.23
2022-12-15T03:41:03.078Z,-3.13
2022-12-15T03:43:06.429Z,-3.12
2022-12-15T03:45:10.406Z,-3.12
2022-12-15T03:47:13.698Z,-3.01
2022-12-15T03:49:17.228Z,-3.05
2022-12-15T03:51:22.250Z,-3.02
2022-12-15T03:53:25.681Z,-2.99
2022-12-15T03:55:29.879Z,-3.21
2022-12-15T03:57:33.205Z,-3.09
2022-12-15T03:59:36.526Z,-3.00
2022-12-15T04:01:47.118Z,-3.06
2022-12-15T04:03:52.435Z,-2.94
2022-12-15T04:05:58.873Z,-2.91
2022-12-15T04:08:03.700Z,-2.94
2022-12-15T04:10:07.779Z,-2.90
2022-12-15T04:12:12.614Z,-3.21
2022-12-15T04:14:15.896Z,-3.07
2022-12-15T04:16:20.275Z,-3.08
2022-12-15T04:18:23.867Z,-2.93
2022-12-15T04:20:26.288Z,-2.83
2022-12-15T04:22:29.603Z,-2.94
2022-12-15T04:24:51.949Z,-2.90
2022-12-15T04:27:12.989Z,-2.85
2022-12-15T04:29:33.736Z,-3.15
2022-12-15T04:31:54.620Z,-2.71
2022-12-15T04:34:19.898Z,-2.91
2022-12-15T04:36:41.230Z,-3.22
2022-12-15T04:39:02.156Z,-3.42
2022-12-15T04:41:24.804Z,-3.55
2022-12-15T04:43:45.778Z,-3.65
2022-12-15T04:46:06.847Z,-3.73
2022-12-15T04:48:27.808Z,-3.56
2022-12-15T04:50:49.065Z,-3.97
2022-12-15T04:53:10.764Z,-3.75
2022-12-15T04:55:31.874Z,-3.90
2022-12-15T04:57:54.182Z,-3.76
2022-12-15T05:00:15.329Z,-3.89
2022-12-15T05:02:36.438Z,-3.91
2022-12-15T05:04:57.390Z,-3.97
2022-12-15T05:07:18.443Z,-4.12
2022-12-15T05:09:39.507Z,-4.07
2022-12-15T05:12:00.367Z,-4.07
2022-12-15T05:14:22.766Z,-4.09
2022-12-15T05:16:43.906Z,-4.07
2022-12-15T05:19:04.854Z,-3.94
2022-12-15T05:21:26.493Z,-3.90
2022-12-15T05:23:47.641Z,-3.79
2022-12-15T05:26:08.610Z,-3.54
2022-12-15T05:28:29.573Z,-3.54
2022-12-15T05:30:51.897Z,-3.52
2022-12-15T05:32:55.472Z,-3.47
2022-12-15T05:34:58.857Z,-3.38
2022-12-15T05:37:03.980Z,-3.54
2022-12-15T05:39:07.499Z,-3.62
2022-12-15T05:41:10.841Z,-3.78
2022-12-15T05:43:14.150Z,-3.70
2022-12-15T05:45:17.599Z,-3.64
2022-12-15T05:47:22.573Z,-3.60
2022-12-15T05:49:26.425Z,-3.53
2022-12-15T05:51:29.772Z,-3.46
2022-12-15T05:53:33.614Z,-3.50
2022-12-15T05:55:37.098Z,-3.34
2022-12-15T05:57:40.407Z,-3.27
2022-12-15T05:59:43.832Z,-3.26
2022-12-15T06:01:47.232Z,-3.22
2022-12-15T06:03:52.091Z,-3.32
2022-12-15T06:05:56.788Z,-3.55
2022-12-15T06:08:01.174Z,-3.52
2022-12-15T06:10:05.237Z,-3.64
2022-12-15T06:12:08.689Z,-3.60
2022-12-15T06:14:11.998Z,-3.44
2022-12-15T06:16:18.073Z,-3.39
2022-12-15T06:18:21.426Z,-3.35
2022-12-15T06:20:26.123Z,-3.32
2022-12-15T06:22:29.927Z,-3.24
2022-12-15T06:24:33.252Z,-3.18
2022-12-15T06:26:38.093Z,-3.13
2022-12-15T06:28:42.034Z,-3.13
2022-12-15T06:30:45.328Z,-3.27
2022-12-15T06:32:49.916Z,-3.25
2022-12-15T06:34:53.438Z,-3.25
2022-12-15T06:36:58.234Z,-3.27
2022-12-15T06:39:02.881Z,-3.36
2022-12-15T06:41:07.714Z,-3.33
2022-12-15T06:43:11.054Z,-3.29
2022-12-15T06:45:14.442Z,-1.11
2022-12-15T06:47:18.372Z,-2.25
2022-12-15T06:49:21.881Z,-2.67
2022-12-15T06:51:25.751Z,-2.96
2022-12-15T06:53:31.143Z,-2.96
2022-12-15T06:55:34.804Z,-3.13
2022-12-15T06:57:38.886Z,-3.48
2022-12-15T06:59:42.223Z,-3.60
2022-12-15T07:01:45.774Z,-3.75
2022-12-15T07:03:49.652Z,-3.76
2022-12-15T07:06:03.409Z,-3.91
2022-12-15T07:08:07.092Z,-4.06
2022-12-15T07:10:12.354Z,-4.19
2022-12-15T07:12:15.922Z,-4.19
2022-12-15T07:14:19.226Z,-4.08
2022-12-15T07:16:24.645Z,-4.01
2022-12-15T07:18:28.194Z,-3.86
2022-12-15T07:20:31.755Z,-4.01
2022-12-15T07:22:35.308Z,-3.88
2022-12-15T07:24:38.723Z,-3.92
2022-12-15T07:26:44.430Z,-3.95
2022-12-15T07:28:47.755Z,-3.80
2022-12-15T07:30:51.115Z,-3.88
2022-12-15T07:32:54.444Z,-3.55
2022-12-15T07:34:57.768Z,-3.51
2022-12-15T07:37:01.015Z,-3.49
2022-12-15T07:39:05.364Z,-3.42
2022-12-15T07:41:09.380Z,-3.56
2022-12-15T07:43:14.005Z,-3.75
2022-12-15T07:45:17.543Z,-3.84
2022-12-15T07:47:20.960Z,-3.82
2022-12-15T07:49:24.258Z,-3.91
2022-12-15T07:51:27.711Z,-3.93
2022-12-15T07:53:31.640Z,-3.96
2022-12-15T07:56:05.078Z,-3.77
2022-12-15T07:57:58.705Z,-3.75
2022-12-15T08:00:05.428Z,-3.67
2022-12-15T08:02:15.404Z,-3.88
2022-12-15T08:04:19.541Z,-3.60
2022-12-15T08:06:22.982Z,-3.67
2022-12-15T08:08:26.315Z,-3.73
2022-12-15T08:10:29.904Z,-4.12
2022-12-15T08:12:33.314Z,-4.02
2022-12-15T08:14:36.968Z,-3.99
2022-12-15T08:16:41.925Z,-4.03
2022-12-15T08:18:45.417Z,-4.05
2022-12-15T08:20:50.309Z,-3.99
2022-12-15T08:22:53.902Z,-4.07
2022-12-15T08:24:57.213Z,-4.46
2022-12-15T08:27:00.577Z,-4.19
2022-12-15T08:29:49.008Z,-4.16
2022-12-15T08:31:30.697Z,-4.05
2022-12-15T08:33:35.830Z,-4.09
2022-12-15T08:35:56.463Z,-4.20
2022-12-15T08:38:05.448Z,-4.12
2022-12-15T08:40:10.177Z,-4.10
2022-12-15T08:42:13.564Z,-4.07
2022-12-15T08:44:17.360Z,-4.06
2022-12-15T08:46:23.233Z,-3.93
2022-12-15T08:48:26.786Z,-3.89
2022-12-15T08:50:31.883Z,-3.89
2022-12-15T08:52:35.647Z,-3.83
2022-12-15T08:54:39.049Z,-3.90
2022-12-15T08:56:42.424Z,-3.83
2022-12-15T08:58:46.669Z,-3.68
2022-12-15T09:00:50.035Z,-3.73
2022-12-15T09:02:53.402Z,-3.76
2022-12-15T09:04:56.732Z,-3.73
2022-12-15T09:07:01.922Z,-3.85
2022-12-15T09:09:07.521Z,-3.94
2022-12-15T09:11:11.148Z,-3.93
2022-12-15T09:13:14.554Z,-3.82
2022-12-15T09:15:18.116Z,-3.74
2022-12-15T09:17:21.481Z,-3.83
2022-12-15T09:19:25.262Z,-3.82
2022-12-15T09:21:31.019Z,-3.64
2022-12-15T09:23:37.249Z,-3.67
2022-12-15T09:25:40.630Z,-3.65
2022-12-15T09:27:43.997Z,-3.55
2022-12-15T09:29:47.235Z,-3.44
2022-12-15T09:31:50.640Z,-3.47
2022-12-15T09:33:55.644Z,-3.27
2022-12-15T09:35:58.981Z,-3.46
2022-12-15T09:38:02.308Z,-3.43
2022-12-15T09:40:09.900Z,-3.45
2022-12-15T09:42:25.605Z,-3.45
2022-12-15T09:44:31.428Z,-3.44
2022-12-15T09:46:50.335Z,-3.49
2022-12-15T09:48:55.092Z,-3.37
2022-12-15T09:50:59.247Z,-3.29
2022-12-15T09:53:17.723Z,-3.27
2022-12-15T09:55:31.078Z,-3.25
2022-12-15T09:57:41.513Z,-3.29
2022-12-15T09:59:58.751Z,-3.41
2022-12-15T10:02:23.780Z,-3.38
2022-12-15T10:04:39.435Z,-3.28
2022-12-15T10:06:50.789Z,-3.25
2022-12-15T10:08:57.073Z,-3.41
2022-12-15T10:11:05.371Z,-3.49
2022-12-15T10:13:16.009Z,-3.53
2022-12-15T10:15:25.608Z,-3.53
2022-12-15T10:17:37.494Z,-3.61
2022-12-15T10:19:45.434Z,-3.56
2022-12-15T10:21:53.341Z,-3.45
2022-12-15T10:24:00.226Z,-3.36
2022-12-15T10:26:20.191Z,-3.48
2022-12-15T10:28:45.281Z,-3.54
2022-12-15T10:31:00.243Z,-3.39
2022-12-15T10:33:10.325Z,-3.38
2022-12-15T10:35:16.921Z,-3.40
2022-12-15T10:37:21.868Z,-3.42
2022-12-15T10:39:37.230Z,-3.28
2022-12-15T10:41:41.960Z,-3.27
2022-12-15T10:43:47.185Z,-3.23
2022-12-15T10:45:51.216Z,-3.27
2022-12-15T10:48:02.379Z,-3.27
2022-12-15T10:50:25.034Z,-3.30
2022-12-15T10:52:36.659Z,-2.99
2022-12-15T10:54:47.129Z,-3.11
2022-12-15T10:56:54.919Z,-3.14
2022-12-15T10:59:00.366Z,-3.08
2022-12-15T11:01:08.386Z,-3.13
2022-12-15T11:03:23.302Z,-3.23
2022-12-15T11:05:27.779Z,-3.06
2022-12-15T11:07:36.506Z,-3.00
2022-12-15T11:09:40.942Z,-3.10
2022-12-15T11:12:05.600Z,-2.97
2022-12-15T11:14:15.704Z,-2.90
2022-12-15T11:16:20.326Z,-2.89
2022-12-15T11:18:33.555Z,-2.90
2022-12-15T11:20:40.957Z,-2.73
2022-12-15T11:22:50.378Z,-2.62
2022-12-15T11:25:10.412Z,-2.60
2022-12-15T11:27:22.100Z,-2.68
2022-12-15T11:29:34.453Z,-2.63
2022-12-15T11:31:41.457Z,-2.57
2022-12-15T11:33:44.871Z,-2.51
2022-12-15T11:36:01.843Z,-2.26
2022-12-15T11:38:12.703Z,-2.31
2022-12-15T11:40:28.327Z,-2.36
2022-12-15T11:42:43.729Z,-2.37
2022-12-15T11:45:01.552Z,-2.50
2022-12-15T11:47:13.182Z,-2.32
2022-12-15T11:49:40.950Z,-2.37
2022-12-15T11:51:50.808Z,-2.41
2022-12-15T11:54:08.984Z,-2.28
2022-12-15T11:56:21.558Z,-2.21
2022-12-15T11:58:49.950Z,-2.40
2022-12-15T12:01:05.786Z,-2.51
2022-12-15T12:03:26.314Z,-2.17
2022-12-15T12:06:04.026Z,-2.01
2022-12-15T12:08:22.021Z,-2.08
2022-12-15T12:10:34.252Z,-2.28
2022-12-15T12:12:44.907Z,-2.27
2022-12-15T12:14:57.414Z,-2.06
2022-12-15T12:17:08.142Z,-1.41
2022-12-15T12:19:14.414Z,-1.03
2022-12-15T12:21:24.224Z,-0.62
2022-12-15T12:23:36.561Z,-0.35
2022-12-15T12:25:46.873Z,-0.07
2022-12-15T12:27:57.097Z,-0.04
2022-12-15T12:30:05.263Z,0.33
2022-12-15T12:32:18.025Z,0.17
2022-12-15T12:34:27.465Z,0.14
2022-12-15T12:36:30.741Z,0.25
2022-12-15T12:38:39.235Z,0.33
2022-12-15T12:40:52.807Z,0.64
2022-12-15T12:42:58.126Z,0.61
2022-12-15T12:45:03.076Z,0.93
2022-12-15T12:47:15.752Z,0.73
2022-12-15T12:49:26.989Z,0.83
2022-12-15T12:51:34.765Z,0.80
2022-12-15T12:53:38.045Z,0.77
2022-12-15T12:55:43.470Z,0.76
2022-12-15T12:57:47.445Z,0.80
2022-12-15T12:59:59.495Z,0.71
2022-12-15T13:02:37.993Z,0.95
2022-12-15T13:04:44.959Z,1.04
2022-12-15T13:07:03.075Z,1.70
2022-12-15T13:09:22.946Z,1.75
2022-12-15T13:12:15.085Z,1.83
2022-12-15T13:14:35.907Z,1.91
2022-12-15T13:16:40.429Z,2.22
2022-12-15T13:19:06.644Z,2.68
2022-12-15T13:21:53.260Z,3.00
2022-12-15T13:24:00.150Z,2.78
2022-12-15T13:26:14.040Z,2.53
2022-12-15T13:28:31.190Z,2.09
2022-12-15T13:30:34.909Z,2.42
2022-12-15T13:32:40.111Z,2.20
2022-12-15T13:34:45.092Z,1.74
2022-12-15T13:37:01.230Z,1.26
2022-12-15T13:39:26.271Z,1.44
2022-12-15T13:41:29.641Z,1.66
2022-12-15T13:43:43.549Z,1.79
2022-12-15T13:45:53.383Z,2.06
2022-12-15T13:47:57.458Z,2.18
2022-12-15T13:50:07.755Z,2.17
2022-12-15T13:52:18.257Z,2.03
2022-12-15T13:54:24.958Z,1.48
2022-12-15T13:56:55.784Z,1.45
2022-12-15T13:59:05.132Z,1.10
2022-12-15T14:01:21.269Z,1.14
2022-12-15T14:03:25.751Z,0.67
2022-12-15T14:05:29.377Z,0.64
2022-12-15T14:07:34.805Z,0.61
2022-12-15T14:09:43.015Z,0.64
2022-12-15T14:11:55.276Z,0.50
2022-12-15T14:14:00.665Z,0.33
2022-12-15T14:16:08.346Z,0.34
2022-12-15T14:18:25.490Z,0.40
2022-12-15T14:20:31.908Z,0.50
2022-12-15T14:22:36.794Z,0.44
2022-12-15T14:24:45.827Z,0.29
2022-12-15T14:26:53.010Z,0.15
2022-12-15T14:29:02.210Z,0.05
2022-12-15T14:31:12.561Z,0.07
2022-12-15T14:33:18.910Z,0.16
2022-12-15T14:35:27.238Z,0.08
2022-12-15T14:37:31.025Z,-0.14
2022-12-15T14:39:41.709Z,-0.02
2022-12-15T14:41:48.908Z,-0.08
2022-12-15T14:46:23.882Z,-0.16
2022-12-15T14:48:41.087Z,-0.24
2022-12-15T14:50:47.892Z,-0.15
2022-12-15T14:52:56.575Z,-0.17
2022-12-15T14:55:03.430Z,-0.11
2022-12-15T14:57:15.899Z,-0.07
2022-12-15T14:59:21.245Z,-0.38
2022-12-15T15:01:26.745Z,-0.34
2022-12-15T15:03:37.118Z,-0.55
2022-12-15T15:05:42.939Z,-0.65
2022-12-15T15:07:46.991Z,-0.49
2022-12-15T15:09:51.227Z,-0.36
2022-12-15T15:12:01.135Z,-0.38
2022-12-15T15:14:09.088Z,-0.50
2022-12-15T15:16:17.710Z,-0.50
2022-12-15T15:18:27.422Z,-0.55
2022-12-15T15:20:34.359Z,-0.42
2022-12-15T15:22:41.412Z,-0.31
2022-12-15T15:24:52.624Z,-0.34
2022-12-15T15:27:27.559Z,-0.39
2022-12-15T15:29:39.306Z,-0.36
2022-12-15T15:31:42.759Z,-0.37
2022-12-15T15:33:46.401Z,-0.50
2022-12-15T15:35:53.050Z,-0.55
2022-12-15T15:38:02.551Z,-0.39
2022-12-15T15:40:11.742Z,-0.49
2022-12-15T15:42:16.591Z,-0.87
2022-12-15T15:44:19.925Z,-0.48
2022-12-15T15:46:26.556Z,-0.63
2022-12-15T15:48:33.086Z,-0.70
2022-12-15T15:50:37.813Z,-0.72
2022-12-15T15:52:41.801Z,-0.76
2022-12-15T15:54:45.802Z,-0.83
2022-12-15T15:56:49.165Z,-1.02
2022-12-15T15:58:54.252Z,-1.00
2022-12-15T16:00:57.633Z,-1.10
2022-12-15T16:03:01.227Z,-1.17
2022-12-15T16:05:05.070Z,-1.19
2022-12-15T16:07:16.294Z,-1.22
2022-12-15T16:09:19.888Z,-1.23
2022-12-15T16:11:23.744Z,-1.29
2022-12-15T16:13:27.911Z,-1.40
2022-12-15T16:15:32.756Z,-1.50
2022-12-15T16:17:36.201Z,-1.50
2022-12-15T16:19:40.037Z,-1.46
2022-12-15T16:21:43.896Z,-1.57
2022-12-15T16:23:49.851Z,-1.63
2022-12-15T16:25:55.608Z,-1.81
2022-12-15T16:27:59.248Z,-1.71
2022-12-15T16:30:02.616Z,-1.76
2022-12-15T16:32:09.777Z,-1.79
2022-12-15T16:34:13.353Z,-1.84
2022-12-15T16:36:16.613Z,-1.88
2022-12-15T16:38:25.464Z,-1.91
2022-12-15T16:40:28.908Z,-2.10
2022-12-15T16:42:32.336Z,-1.89
2022-12-15T16:44:35.663Z,-1.79
2022-12-15T16:46:39.081Z,-1.77
2022-12-15T16:48:44.304Z,-1.85
2022-12-15T16:50:52.197Z,-1.85
2022-12-15T16:52:56.206Z,-1.87
2022-12-15T16:54:59.723Z,-1.87
2022-12-15T16:57:03.800Z,-1.96
2022-12-15T16:59:32.077Z,-2.03
2022-12-15T17:01:35.459Z,-2.07
2022-12-15T17:03:44.542Z,-1.91
2022-12-15T17:05:50.470Z,-1.79
2022-12-15T17:07:57.556Z,-1.69
2022-12-15T17:10:01.009Z,-1.68
2022-12-15T17:12:04.673Z,-1.62
2022-12-15T17:14:08.568Z,-1.56
2022-12-15T17:16:14.781Z,-1.47
2022-12-15T17:18:18.210Z,-1.70
2022-12-15T17:20:29.649Z,-1.81
2022-12-15T17:22:34.451Z,-1.86
2022-12-15T17:24:37.785Z,-1.77
2022-12-15T17:26:43.260Z,-1.74
2022-12-15T17:28:46.671Z,-1.72
2022-12-15T17:30:51.411Z,-1.67
2022-12-15T17:32:54.840Z,-1.66
2022-12-15T17:34:58.320Z,-1.69
2022-12-15T17:37:05.426Z,-1.63
2022-12-15T17:39:11.701Z,-1.66
2022-12-15T17:41:35.034Z,-1.78
2022-12-15T17:43:39.316Z,-1.93
2022-12-15T17:45:43.273Z,-2.04
2022-12-15T17:47:47.089Z,-2.08
2022-12-15T17:49:50.390Z,-2.01
2022-12-15T17:51:53.713Z,-1.94
2022-12-15T17:53:59.898Z,-1.85
2022-12-15T17:56:03.313Z,-1.83
2022-12-15T17:58:16.745Z,-1.75
2022-12-15T18:00:23.833Z,-1.86
2022-12-15T18:02:27.443Z,-1.68
2022-12-15T18:04:31.387Z,-1.70
2022-12-15T18:06:34.771Z,-1.73
2022-12-15T18:08:38.314Z,-1.81
2022-12-15T18:10:43.691Z,-1.77
2022-12-15T18:12:46.996Z,-1.76
2022-12-15T18:14:50.543Z,-2.10
2022-12-15T18:16:53.839Z,-2.63
2022-12-15T18:18:57.437Z,-2.88
2022-12-15T18:21:08.594Z,-2.93
2022-12-15T18:23:15.924Z,-2.99
2022-12-15T18:25:23.277Z,-3.12
2022-12-15T18:27:30.346Z,-3.05
2022-12-15T18:29:33.708Z,-2.86
2022-12-15T18:31:37.062Z,-2.70
2022-12-15T18:33:40.569Z,-2.68
2022-12-15T18:35:46.711Z,-2.56
2022-12-15T18:37:51.838Z,-2.44
2022-12-15T18:39:58.236Z,-2.46
2022-12-15T18:42:07.066Z,-2.42
2022-12-15T18:44:19.310Z,-2.45
2022-12-15T18:46:22.701Z,-2.41
2022-12-15T18:48:28.276Z,-2.38
2022-12-15T18:50:31.719Z,-2.33
2022-12-15T18:52:36.762Z,-2.30
2022-12-15T18:54:40.788Z,-2.32
2022-12-15T18:56:44.162Z,-2.42
2022-12-15T18:58:47.612Z,-2.40
2022-12-15T19:00:53.162Z,-2.43
2022-12-15T19:03:00.096Z,-2.37
2022-12-15T19:05:03.605Z,-2.44
2022-12-15T19:07:07.578Z,-2.39
2022-12-15T19:09:15.647Z,-2.41
2022-12-15T19:11:31.062Z,-2.34
2022-12-15T19:13:37.670Z,-2.26
2022-12-15T19:15:41.038Z,-2.23
2022-12-15T19:18:03.427Z,-2.38
2022-12-15T19:20:32.084Z,-2.54
2022-12-15T19:22:35.403Z,-2.60
2022-12-15T19:24:56.690Z,-2.59
2022-12-15T19:27:00.152Z,-2.56
2022-12-15T19:29:11.526Z,-2.57
2022-12-15T19:31:14.897Z,-2.71
2022-12-15T19:33:20.560Z,-2.67
2022-12-15T19:35:24.740Z,-2.82
2022-12-15T19:37:30.915Z,-2.80
2022-12-15T19:39:37.011Z,-2.74
2022-12-15T19:41:40.402Z,-2.72
2022-12-15T19:43:44.512Z,-2.61
2022-12-15T19:45:48.206Z,-2.93
2022-12-15T19:47:51.954Z,-3.01
2022-12-15T19:49:56.663Z,-2.83
2022-12-15T19:52:00.010Z,-2.88
2022-12-15T19:54:03.911Z,-2.80
2022-12-15T19:56:08.626Z,-2.73
2022-12-15T19:58:28.490Z,-2.72
2022-12-15T20:00:32.065Z,-2.93
2022-12-15T20:02:35.479Z,-3.13
2022-12-15T20:04:38.931Z,-3.13
2022-12-15T20:06:43.911Z,-3.17
2022-12-15T20:08:50.485Z,-3.12
2022-12-15T20:10:55.473Z,-3.17
2022-12-15T20:12:59.546Z,-3.08
2022-12-15T20:15:02.934Z,-3.09
2022-12-15T20:17:06.404Z,-3.05
2022-12-15T20:19:09.765Z,-3.17
2022-12-15T20:21:17.919Z,-3.16
2022-12-15T20:23:27.365Z,-3.00
2022-12-15T20:25:36.017Z,-3.01
2022-12-15T20:27:39.352Z,-3.08
2022-12-15T20:29:43.182Z,-3.11
2022-12-15T20:31:46.597Z,-3.13
2022-12-15T20:33:50.454Z,-3.01
2022-12-15T20:35:55.087Z,-3.27
2022-12-15T20:37:58.669Z,-3.48
2022-12-15T20:40:03.345Z,-3.52
2022-12-15T20:42:07.245Z,-3.57
2022-12-15T20:44:13.694Z,-3.59
2022-12-15T20:46:20.716Z,-3.48
2022-12-15T20:48:25.499Z,-3.47
2022-12-15T20:50:34.937Z,-3.40
2022-12-15T20:52:38.302Z,-3.39
2022-12-15T20:54:42.830Z,-3.50
2022-12-15T20:56:48.726Z,-3.45
2022-12-15T20:58:52.208Z,-3.33
2022-12-15T21:00:55.707Z,-3.37
2022-12-15T21:02:59.380Z,-3.21
2022-12-15T21:05:03.476Z,-3.44
2022-12-15T21:07:07.175Z,-3.79
2022-12-15T21:09:12.118Z,-3.70
2022-12-15T21:11:18.474Z,-3.54
2022-12-15T21:13:27.363Z,-3.49
2022-12-15T21:15:30.716Z,-3.44
2022-12-15T21:17:38.663Z,-3.40
2022-12-15T21:19:45.811Z,-3.44
2022-12-15T21:21:51.891Z,-3.34
2022-12-15T21:23:56.021Z,-3.34
2022-12-15T21:26:00.425Z,-3.35
2022-12-15T21:28:03.698Z,-3.56
2022-12-15T21:30:15.978Z,-3.66
2022-12-15T21:32:19.360Z,-3.51
2022-12-15T21:34:22.681Z,-3.54
2022-12-15T21:36:26.043Z,-3.58
2022-12-15T21:38:33.250Z,-3.57
2022-12-15T21:40:36.804Z,-3.68
2022-12-15T21:42:40.132Z,-3.84
2022-12-15T21:44:43.577Z,-3.85
2022-12-15T21:46:48.721Z,-3.81
2022-12-15T21:49:09.840Z,-3.82
2022-12-15T21:51:15.479Z,-3.72
2022-12-15T21:53:18.948Z,-3.66
2022-12-15T21:55:26.050Z,-3.60
2022-12-15T21:57:29.516Z,-3.57
2022-12-15T21:59:34.031Z,-3.53
2022-12-15T22:01:37.430Z,-3.58
2022-12-15T22:03:44.865Z,-3.60
2022-12-15T22:05:48.170Z,-3.61
2022-12-15T22:07:52.102Z,-3.51
2022-12-15T22:09:55.411Z,-3.72
2022-12-15T22:11:58.968Z,-3.71
2022-12-15T22:14:04.502Z,-3.81
2022-12-15T22:16:09.795Z,-3.81
2022-12-15T22:18:19.540Z,-3.85
2022-12-15T22:20:25.632Z,-3.83
2022-12-15T22:22:31.964Z,-4.01
2022-12-15T22:24:35.481Z,-4.07
2022-12-15T22:26:40.660Z,-4.01
2022-12-15T22:28:44.116Z,-4.02
2022-12-15T22:30:47.526Z,-4.00
2022-12-15T22:32:51.216Z,-3.95
2022-12-15T22:34:54.563Z,-3.82
2022-12-15T22:36:59.202Z,-3.74
2022-12-15T22:39:07.503Z,-3.83
2022-12-15T22:41:19.322Z,-3.95
2022-12-15T22:43:26.838Z,-3.80
2022-12-15T22:45:30.198Z,-3.80
2022-12-15T22:47:37.210Z,-3.98
2022-12-15T22:49:42.244Z,-4.00
2022-12-15T22:51:46.056Z,-4.37
2022-12-15T22:53:50.798Z,-3.92
2022-12-15T22:55:55.251Z,-3.94
2022-12-15T22:58:02.983Z,-3.95
2022-12-15T23:00:09.137Z,-3.92
2022-12-15T23:02:12.787Z,-3.97
2022-12-15T23:04:16.202Z,-3.97
2022-12-15T23:06:20.275Z,-3.97
2022-12-15T23:08:23.583Z,-3.82
2022-12-15T23:10:45.593Z,-3.87
2022-12-15T23:12:54.160Z,-3.90
2022-12-15T23:15:19.871Z,-3.84
2022-12-15T23:17:24.872Z,-3.82
2022-12-15T23:19:28.117Z,-3.93
2022-12-15T23:21:32.282Z,-3.96
2022-12-15T23:23:35.928Z,-4.00
2022-12-15T23:25:40.922Z,-4.17
2022-12-15T23:27:44.580Z,-4.20
2022-12-15T23:29:47.823Z,-4.18
2022-12-15T23:31:51.149Z,-4.25
2022-12-15T23:33:55.319Z,-4.29
2022-12-15T23:36:01.038Z,-4.33
2022-12-15T23:38:04.679Z,-4.32
2022-12-15T23:40:09.164Z,-4.38
2022-12-15T23:42:13.861Z,-4.30
2022-12-15T23:44:17.348Z,-4.25
2022-12-15T23:46:21.427Z,-4.27
2022-12-15T23:48:26.020Z,-4.30
2022-12-15T23:50:29.687Z,-4.37
2022-12-15T23:52:33.055Z,-4.27
2022-12-15T23:54:36.377Z,-4.48
2022-12-15T23:56:40.364Z,-4.59
2022-12-15T23:58:46.323Z,-4.59
